Time;durP1;ratioP1;P1;durP2;ratioP2;P2;SDS_P1;SDS_P2;PMS_P1;PMS_P2;Temp;Humidity;BMP_temperature;BMP_pressure;BME280_temperature;BME280_humidity;BME280_pressure;Samples;Min_cycle;Max_cycle;Signal;HPM_P1;HPM_P2
2022/07/15 00:01:34;;;;;;;2.03;1.90;;;15.90;1.00;;;;;;6281302;28;20237;-55
2022/07/15 00:04:39;;;;;;;2.90;2.70;;;15.80;1.00;;;;;;6278516;28;20225;-53
2022/07/15 00:07:42;;;;;;;2.40;2.23;;;15.80;1.00;;;;;;6267701;28;20320;-54
2022/07/15 00:10:45;;;;;;;3.20;2.20;;;15.80;1.00;;;;;;6273509;28;20428;-55
2022/07/15 00:13:48;;;;;;;1.90;1.80;;;15.80;1.00;;;;;;6286945;28;20855;-53
2022/07/15 00:16:51;;;;;;;2.77;2.07;;;15.70;1.00;;;;;;6272504;28;20302;-53
2022/07/15 00:19:55;;;;;;;2.37;2.17;;;15.80;1.00;;;;;;6282177;28;20241;-55
2022/07/15 00:22:58;;;;;;;4.53;2.00;;;15.60;1.00;;;;;;6284582;28;20315;-54
2022/07/15 00:26:02;;;;;;;4.27;2.33;;;15.70;1.00;;;;;;6293008;28;20328;-54
2022/07/15 00:29:04;;;;;;;2.30;2.20;;;15.60;1.00;;;;;;6301018;28;20323;-54
2022/07/15 00:32:07;;;;;;;2.13;2.00;;;15.60;1.00;;;;;;6290042;28;20840;-53
2022/07/15 00:35:12;;;;;;;2.77;2.13;;;15.50;1.00;;;;;;6267414;28;20240;-50
2022/07/15 00:38:15;;;;;;;2.33;1.90;;;15.40;1.00;;;;;;6281024;28;20382;-54
2022/07/15 00:41:18;;;;;;;2.37;2.10;;;15.40;1.00;;;;;;6283166;28;20371;-55
2022/07/15 00:44:20;;;;;;;2.67;2.20;;;15.30;1.00;;;;;;6286736;28;20331;-54
2022/07/15 00:47:23;;;;;;;2.20;2.10;;;15.30;1.00;;;;;;6276600;28;20540;-55
2022/07/15 00:50:30;;;;;;;2.20;2.10;;;15.30;1.00;;;;;;6278665;28;20245;-55
2022/07/15 00:53:35;;;;;;;2.97;2.40;;;15.30;1.00;;;;;;6291210;28;20237;-55
2022/07/15 00:56:42;;;;;;;2.17;2.03;;;15.20;1.00;;;;;;6295108;28;20312;-53
2022/07/15 00:59:46;;;;;;;2.57;2.43;;;15.20;1.00;;;;;;6299200;28;20328;-54
2022/07/15 01:02:52;;;;;;;2.87;2.27;;;15.10;1.00;;;;;;6292221;28;20241;-54
2022/07/15 01:05:58;;;;;;;4.20;2.40;;;15.10;1.00;;;;;;6283620;28;20240;-55
2022/07/15 01:09:02;;;;;;;3.10;2.30;;;15.00;1.00;;;;;;6282477;28;20240;-52
2022/07/15 01:12:06;;;;;;;2.53;2.40;;;15.00;1.00;;;;;;6284129;28;20636;-54
2022/07/15 01:15:10;;;;;;;2.60;2.40;;;15.00;1.00;;;;;;6281450;28;20464;-55
2022/07/15 01:18:13;;;;;;;4.03;2.60;;;14.90;1.00;;;;;;6308533;28;20237;-53
2022/07/15 01:21:18;;;;;;;5.97;2.77;;;14.90;1.00;;;;;;6274269;28;20225;-55
2022/07/15 01:24:20;;;;;;;3.23;2.20;;;14.80;1.00;;;;;;6281173;28;20229;-54
2022/07/15 01:27:23;;;;;;;2.90;2.30;;;14.80;1.00;;;;;;6287647;28;20844;-54
2022/07/15 01:30:26;;;;;;;2.60;2.40;;;14.80;1.00;;;;;;6262850;28;20237;-54
2022/07/15 01:33:31;;;;;;;2.97;2.17;;;14.70;1.00;;;;;;6279339;28;20811;-53
2022/07/15 01:36:37;;;;;;;4.70;2.50;;;14.70;1.00;;;;;;6289165;28;20311;-53
2022/07/15 01:39:40;;;;;;;2.93;2.53;;;14.70;1.00;;;;;;6274526;28;20246;-53
2022/07/15 01:42:43;;;;;;;4.20;2.47;;;14.70;1.00;;;;;;6287341;28;20256;-54
2022/07/15 01:45:48;;;;;;;5.70;2.77;;;14.60;1.00;;;;;;6274807;28;20225;-54
2022/07/15 01:52:14;;;;;;;2.87;2.67;;;14.50;1.00;;;;;;6281273;28;20719;-54
2022/07/15 01:55:16;;;;;;;5.77;2.63;;;14.40;1.00;;;;;;6276146;28;20257;-54
2022/07/15 01:58:19;;;;;;;5.43;2.60;;;14.40;1.00;;;;;;6294631;28;20241;-52
2022/07/15 02:01:22;;;;;;;4.57;3.17;;;14.30;1.00;;;;;;6289568;28;20339;-55
2022/07/15 02:04:25;;;;;;;2.67;2.47;;;14.30;1.00;;;;;;6284035;28;20249;-54
2022/07/15 02:07:30;;;;;;;2.77;2.57;;;14.20;1.00;;;;;;6274629;28;20730;-53
2022/07/15 02:10:40;;;;;;;4.53;2.67;;;14.20;1.00;;;;;;6269556;28;20523;-54
2022/07/15 02:13:43;;;;;;;5.43;3.10;;;14.20;1.00;;;;;;6300142;28;20233;-56
2022/07/15 02:16:46;;;;;;;4.63;2.63;;;14.20;1.00;;;;;;6286880;28;20495;-54
2022/07/15 02:19:48;;;;;;;4.37;2.70;;;14.10;1.00;;;;;;6287995;28;20740;-54
2022/07/15 02:22:53;;;;;;;4.13;2.60;;;14.10;1.00;;;;;;6270745;28;20261;-53
2022/07/15 02:25:56;;;;;;;3.50;2.47;;;14.00;1.00;;;;;;6281567;28;20297;-54
2022/07/15 02:28:59;;;;;;;6.90;2.60;;;14.00;1.00;;;;;;6272899;28;20264;-50
2022/07/15 02:32:02;;;;;;;6.80;3.07;;;14.10;1.00;;;;;;6273380;28;20745;-52
2022/07/15 02:35:06;;;;;;;7.13;2.80;;;14.00;1.00;;;;;;6282221;28;20240;-56
2022/07/15 02:38:12;;;;;;;2.83;2.57;;;14.00;1.00;;;;;;6280835;28;20264;-52
2022/07/15 02:41:15;;;;;;;7.27;2.67;;;14.00;1.00;;;;;;6278244;28;20242;-54
2022/07/15 02:44:29;;;;;;;5.17;2.90;;;14.00;1.00;;;;;;6275262;28;20260;-55
2022/07/15 02:47:32;;;;;;;3.30;3.00;;;14.00;1.00;;;;;;6284654;28;20683;-55
2022/07/15 02:50:36;;;;;;;8.77;2.70;;;14.00;1.00;;;;;;6272713;28;20360;-54
2022/07/15 02:53:40;;;;;;;7.33;2.70;;;14.00;1.00;;;;;;6275754;28;20896;-53
2022/07/15 02:56:43;;;;;;;5.00;2.50;;;14.00;1.00;;;;;;6269736;28;20256;-55
2022/07/15 02:59:47;;;;;;;9.33;2.80;;;14.00;1.00;;;;;;6282435;28;20383;-53
2022/07/15 03:02:50;;;;;;;6.73;3.17;;;13.90;1.00;;;;;;6276897;28;20364;-52
2022/07/15 03:05:53;;;;;;;3.30;2.60;;;13.90;1.00;;;;;;6279709;28;20363;-55
2022/07/15 03:08:58;;;;;;;6.57;2.87;;;13.90;1.00;;;;;;6281347;28;20229;-54
2022/07/15 03:12:01;;;;;;;5.77;2.93;;;13.80;1.00;;;;;;6279468;28;20249;-54
2022/07/15 03:15:05;;;;;;;5.07;2.80;;;13.80;1.00;;;;;;6278266;28;20581;-54
2022/07/15 03:18:10;;;;;;;7.13;2.93;;;13.80;1.00;;;;;;6276418;28;20323;-54
2022/07/15 03:21:13;;;;;;;5.27;2.80;;;13.80;1.00;;;;;;6278061;28;20244;-54
2022/07/15 03:24:17;;;;;;;8.07;3.33;;;13.80;1.00;;;;;;6278078;28;20248;-53
2022/07/15 03:27:20;;;;;;;4.63;3.17;;;13.70;1.00;;;;;;6282118;28;20237;-54
2022/07/15 03:30:23;;;;;;;7.37;3.40;;;13.70;1.00;;;;;;6286336;28;20332;-54
2022/07/15 03:33:26;;;;;;;3.37;2.97;;;13.70;1.00;;;;;;6266799;28;20313;-54
2022/07/15 03:36:29;;;;;;;14.37;3.20;;;13.70;1.00;;;;;;6277109;28;20760;-54
2022/07/15 03:39:33;;;;;;;7.77;3.00;;;13.60;1.00;;;;;;6282594;28;20524;-53
2022/07/15 03:42:36;;;;;;;8.60;3.20;;;13.70;1.00;;;;;;6276849;28;20676;-55
2022/07/15 03:45:40;;;;;;;4.37;2.60;;;13.60;1.00;;;;;;6282841;28;20271;-52
2022/07/15 03:48:43;;;;;;;6.43;2.70;;;13.60;1.00;;;;;;6273621;28;20874;-54
2022/07/15 03:51:46;;;;;;;9.37;3.10;;;13.60;1.00;;;;;;6269645;28;20229;-53
2022/07/15 03:54:51;;;;;;;4.77;3.07;;;13.60;1.00;;;;;;6276828;28;20307;-53
2022/07/15 03:57:55;;;;;;;3.97;2.70;;;13.60;1.00;;;;;;6285546;28;20644;-53
2022/07/15 04:00:58;;;;;;;5.60;2.80;;;13.70;1.00;;;;;;6272419;28;20481;-54
2022/07/15 04:04:02;;;;;;;6.63;3.00;;;13.60;1.00;;;;;;6279085;28;20229;-53
2022/07/15 04:07:05;;;;;;;4.07;3.17;;;13.70;1.00;;;;;;6277547;28;20247;-53
2022/07/15 04:10:10;;;;;;;11.30;3.20;;;13.70;1.00;;;;;;6274019;28;20239;-54
2022/07/15 04:13:13;;;;;;;7.97;3.27;;;13.70;1.00;;;;;;6280763;28;20689;-53
2022/07/15 04:16:16;;;;;;;3.33;3.03;;;13.80;1.00;;;;;;6281334;28;20240;-55
2022/07/15 04:19:19;;;;;;;3.23;2.83;;;13.80;1.00;;;;;;6282988;28;20244;-53
2022/07/15 04:22:25;;;;;;;5.40;2.83;;;13.90;1.00;;;;;;6279919;28;20626;-54
2022/07/15 04:25:30;;;;;;;3.23;3.00;;;13.90;1.00;;;;;;6281004;28;20732;-54
2022/07/15 04:28:33;;;;;;;8.43;3.60;;;14.00;1.00;;;;;;6289364;28;20245;-55
2022/07/15 04:31:36;;;;;;;5.70;2.80;;;14.00;1.00;;;;;;6290920;28;20523;-55
2022/07/15 04:34:39;;;;;;;4.97;3.13;;;14.00;1.00;;;;;;6284822;28;20229;-52
2022/07/15 04:37:45;;;;;;;4.97;3.00;;;13.90;1.00;;;;;;6278535;28;20225;-53
2022/07/15 04:40:51;;;;;;;6.97;3.03;;;13.90;1.00;;;;;;6276891;28;20769;-52
2022/07/15 04:43:54;;;;;;;10.90;3.33;;;13.80;1.00;;;;;;6283428;28;20367;-54
2022/07/15 04:47:02;;;;;;;8.73;3.03;;;13.70;1.00;;;;;;6280252;28;20717;-55
2022/07/15 04:53:26;;;;;;;4.73;2.87;;;13.70;1.00;;;;;;6276012;28;20233;-55
2022/07/15 04:56:32;;;;;;;2.80;2.60;;;13.90;1.00;;;;;;6288095;28;20283;-54
2022/07/15 04:59:35;;;;;;;7.90;3.30;;;13.90;1.00;;;;;;6285436;28;20732;-54
2022/07/15 05:02:38;;;;;;;4.00;3.17;;;14.00;1.00;;;;;;6282423;28;20759;-53
2022/07/15 05:05:41;;;;;;;7.40;3.27;;;14.20;1.00;;;;;;6274530;28;20789;-53
2022/07/15 05:08:44;;;;;;;10.37;3.10;;;14.40;1.00;;;;;;6285036;28;20750;-53
2022/07/15 05:11:48;;;;;;;7.17;3.00;;;14.50;1.00;;;;;;6281024;28;20786;-54
2022/07/15 05:14:51;;;;;;;5.07;3.07;;;14.60;1.00;;;;;;6284295;28;20344;-53
2022/07/15 05:17:54;;;;;;;5.07;2.60;;;14.60;1.00;;;;;;6282148;28;20352;-53
2022/07/15 05:20:57;;;;;;;8.07;3.30;;;14.60;1.00;;;;;;6274785;28;20242;-53
2022/07/15 05:24:01;;;;;;;5.07;2.83;;;14.60;1.00;;;;;;6284692;28;20642;-53
2022/07/15 05:27:25;;;;;;;12.60;3.30;;;14.80;1.00;;;;;;6276653;28;20631;-55
2022/07/15 05:30:28;;;;;;;9.80;2.80;;;15.10;1.00;;;;;;6279565;28;20313;-53
2022/07/15 05:33:31;;;;;;;8.80;3.43;;;15.40;1.00;;;;;;6278110;28;20291;-54
2022/07/15 05:36:34;;;;;;;4.40;2.63;;;15.50;1.00;;;;;;6295447;28;20632;-54
2022/07/15 05:39:37;;;;;;;4.83;2.50;;;15.90;1.00;;;;;;6290549;28;20827;-54
2022/07/15 05:42:41;;;;;;;12.07;3.10;;;16.20;1.00;;;;;;6286299;28;20304;-54
2022/07/15 05:45:44;;;;;;;4.43;2.60;;;16.50;1.00;;;;;;6281317;28;20237;-56
2022/07/15 05:48:47;;;;;;;6.27;2.80;;;16.70;1.00;;;;;;6277003;28;20302;-54
2022/07/15 05:51:50;;;;;;;10.27;3.10;;;16.70;1.00;;;;;;6281649;28;20640;-47
2022/07/15 05:54:53;;;;;;;3.47;2.50;;;16.90;1.00;;;;;;6285737;28;20594;-52
2022/07/15 05:58:06;;;;;;;9.13;2.57;;;17.10;1.00;;;;;;6287746;28;20675;-53
2022/07/15 06:01:09;;;;;;;5.93;2.37;;;17.30;1.00;;;;;;6285715;28;20341;-53
2022/07/15 06:04:13;;;;;;;2.97;2.07;;;17.60;1.00;;;;;;6289611;28;20249;-53
2022/07/15 06:07:16;;;;;;;2.60;2.10;;;17.80;1.00;;;;;;6284696;28;20249;-53
2022/07/15 06:10:19;;;;;;;3.73;2.10;;;18.30;1.00;;;;;;6280972;28;20265;-54
2022/07/15 06:13:23;;;;;;;3.47;2.30;;;18.20;1.00;;;;;;6285630;28;20275;-54
2022/07/15 06:16:26;;;;;;;3.17;2.00;;;18.00;1.00;;;;;;6279071;28;20234;-54
2022/07/15 06:19:29;;;;;;;3.40;2.03;;;17.90;1.00;;;;;;6287538;28;20244;-55
2022/07/15 06:22:32;;;;;;;3.33;2.53;;;17.70;1.00;;;;;;6284885;28;20237;-53
2022/07/15 06:25:35;;;;;;;4.63;2.37;;;17.70;1.00;;;;;;6293816;28;20337;-54
2022/07/15 06:28:39;;;;;;;3.60;2.53;;;17.70;1.00;;;;;;6290832;28;20753;-53
2022/07/15 06:31:51;;;;;;;2.43;1.87;;;17.60;1.00;;;;;;6288552;28;20236;-55
2022/07/15 06:35:04;;;;;;;3.37;2.20;;;17.50;1.00;;;;;;6286922;28;20428;-55
2022/07/15 06:38:06;;;;;;;3.30;2.67;;;17.50;1.00;;;;;;6280048;28;20839;-54
2022/07/15 06:41:09;;;;;;;5.30;2.40;;;17.50;1.00;;;;;;6278940;28;20672;-54
2022/07/15 06:44:14;;;;;;;3.03;2.50;;;17.60;1.00;;;;;;6276951;28;20571;-54
2022/07/15 06:47:17;;;;;;;7.20;2.30;;;17.60;1.00;;;;;;6284336;28;20234;-54
2022/07/15 06:50:22;;;;;;;3.87;2.20;;;17.60;1.00;;;;;;6279566;28;20252;-54
2022/07/15 06:53:25;;;;;;;5.40;2.30;;;17.50;1.00;;;;;;6286624;28;20282;-53
2022/07/15 06:56:29;;;;;;;4.30;2.30;;;17.60;1.00;;;;;;6279050;28;20247;-53
2022/07/15 06:59:33;;;;;;;7.97;2.33;;;17.60;1.00;;;;;;6287489;28;20619;-54
2022/07/15 07:02:37;;;;;;;5.27;2.13;;;17.40;1.00;;;;;;6280032;28;20552;-53
2022/07/15 07:05:43;;;;;;;10.27;2.43;;;17.60;1.00;;;;;;6280280;28;20222;-53
2022/07/15 07:08:47;;;;;;;6.57;2.20;;;17.90;1.00;;;;;;6287587;28;20284;-54
2022/07/15 07:11:50;;;;;;;4.57;2.30;;;18.30;1.00;;;;;;6287612;28;20229;-54
2022/07/15 07:14:54;;;;;;;5.23;2.20;;;18.40;1.00;;;;;;6283946;28;20245;-54
2022/07/15 07:18:01;;;;;;;2.87;1.87;;;18.30;1.00;;;;;;6288655;28;20243;-58
2022/07/15 07:21:13;;;;;;;3.60;1.60;;;18.30;1.00;;;;;;6283873;28;20801;-54
2022/07/15 07:24:17;;;;;;;3.13;1.97;;;18.30;1.00;;;;;;6273086;28;20289;-55
2022/07/15 07:27:20;;;;;;;3.53;1.93;;;18.50;1.00;;;;;;6285821;28;20261;-52
2022/07/15 07:30:24;;;;;;;4.03;1.80;;;18.60;1.00;;;;;;6288898;28;21880;-54
2022/07/15 07:33:27;;;;;;;3.70;2.00;;;18.70;1.00;;;;;;6278380;28;20265;-55
2022/07/15 07:36:30;;;;;;;2.97;1.97;;;18.50;1.00;;;;;;6289673;28;20268;-53
2022/07/15 07:39:33;;;;;;;2.20;2.00;;;18.50;1.00;;;;;;6281441;28;20375;-54
2022/07/15 07:42:36;;;;;;;4.23;2.07;;;18.50;1.00;;;;;;6276322;28;20380;-53
2022/07/15 07:45:40;;;;;;;4.23;1.90;;;18.60;1.00;;;;;;6285380;28;20840;-50
2022/07/15 07:48:43;;;;;;;2.17;1.70;;;18.40;1.00;;;;;;6274417;28;20328;-53
2022/07/15 07:51:47;;;;;;;4.53;2.00;;;18.30;1.00;;;;;;6271319;28;20796;-54
2022/07/15 07:54:50;;;;;;;2.40;1.60;;;18.50;1.00;;;;;;6281695;28;20354;-54
2022/07/15 07:57:55;;;;;;;4.50;2.00;;;18.70;1.00;;;;;;6276773;28;20713;-54
2022/07/15 08:01:03;;;;;;;2.37;2.17;;;19.00;1.00;;;;;;6278643;28;20226;-53
2022/07/15 08:04:07;;;;;;;2.63;1.80;;;19.00;1.00;;;;;;6280252;28;20236;-54
2022/07/15 08:07:11;;;;;;;3.77;2.00;;;19.10;1.00;;;;;;6286397;28;20293;-54
2022/07/15 08:10:15;;;;;;;3.07;1.80;;;19.10;1.00;;;;;;6271721;28;20648;-55
2022/07/15 08:13:19;;;;;;;4.50;2.00;;;18.90;1.00;;;;;;6292699;28;20244;-54
2022/07/15 08:16:31;;;;;;;2.37;2.17;;;18.90;1.00;;;;;;6284800;28;20846;-53
2022/07/15 08:19:34;;;;;;;3.17;1.90;;;18.70;1.00;;;;;;6283604;28;20330;-54
2022/07/15 08:22:38;;;;;;;5.60;2.17;;;18.60;1.00;;;;;;6277201;28;20248;-55
2022/07/15 08:25:51;;;;;;;2.80;1.77;;;18.80;1.00;;;;;;6280279;28;20317;-53
2022/07/15 08:28:55;;;;;;;6.30;2.00;;;19.00;1.00;;;;;;6288880;28;20310;-55
2022/07/15 08:32:12;;;;;;;2.30;1.80;;;18.70;1.00;;;;;;6283908;28;20244;-54
2022/07/15 08:35:15;;;;;;;1.80;1.70;;;18.70;1.00;;;;;;6280459;28;20225;-53
2022/07/15 08:38:21;;;;;;;3.63;1.97;;;18.50;1.00;;;;;;6286087;28;20720;-55
2022/07/15 08:41:24;;;;;;;1.80;1.70;;;18.60;1.00;;;;;;6282149;28;20337;-54
2022/07/15 08:44:27;;;;;;;1.97;1.87;;;18.90;1.00;;;;;;6283853;28;20583;-55
2022/07/15 08:47:33;;;;;;;4.43;2.20;;;18.90;1.00;;;;;;6277105;28;20261;-54
2022/07/15 08:50:56;;;;;;;2.37;1.80;;;19.00;1.00;;;;;;6287801;28;20240;-52
2022/07/15 08:53:59;;;;;;;1.63;1.60;;;18.90;1.00;;;;;;6282044;28;20233;-53
2022/07/15 08:57:03;;;;;;;1.60;1.50;;;18.80;1.00;;;;;;6269454;28;20324;-52
2022/07/15 09:00:22;;;;;;;4.57;1.77;;;18.60;1.00;;;;;;6282355;28;20241;-53
2022/07/15 09:03:26;;;;;;;3.17;1.90;;;18.50;1.00;;;;;;6288853;28;20638;-52
2022/07/15 09:06:34;;;;;;;3.97;1.70;;;18.50;1.00;;;;;;6291591;28;20266;-54
2022/07/15 09:09:38;;;;;;;2.23;2.03;;;18.60;1.00;;;;;;6245755;28;20310;-52
2022/07/15 09:12:44;;;;;;;2.10;1.60;;;18.70;1.00;;;;;;6269603;28;20236;-53
2022/07/15 09:15:50;;;;;;;2.30;2.03;;;18.70;1.00;;;;;;6288749;28;20230;-53
2022/07/15 09:18:56;;;;;;;4.70;2.00;;;18.80;1.00;;;;;;6282414;28;20352;-55
2022/07/15 09:22:02;;;;;;;4.80;1.80;;;18.60;1.00;;;;;;6281800;28;20322;-53
2022/07/15 09:25:07;;;;;;;4.27;2.10;;;18.70;1.00;;;;;;6282326;28;20238;-52
2022/07/15 09:28:11;;;;;;;3.43;2.23;;;18.70;1.00;;;;;;6292725;28;20643;-53
2022/07/15 09:34:36;;;;;;;3.10;2.30;;;18.90;1.00;;;;;;6285001;28;20238;-53
2022/07/15 09:37:57;;;;;;;3.93;1.93;;;19.10;1.00;;;;;;6291680;28;20806;-53
2022/07/15 09:41:01;;;;;;;2.00;1.57;;;19.30;1.00;;;;;;6283509;28;20686;-53
2022/07/15 09:44:06;;;;;;;2.93;1.87;;;19.60;1.00;;;;;;6280997;28;20713;-52
2022/07/15 09:47:17;;;;;;;2.03;1.90;;;19.80;1.00;;;;;;6287777;28;20481;-53
2022/07/15 09:50:33;;;;;;;3.23;1.80;;;19.90;1.00;;;;;;6285015;28;20715;-54
2022/07/15 09:53:37;;;;;;;3.13;1.80;;;20.00;1.00;;;;;;6260120;28;20641;-53
2022/07/15 09:56:40;;;;;;;2.10;1.90;;;19.90;1.00;;;;;;6255433;28;20233;-53
2022/07/15 09:59:43;;;;;;;4.60;2.10;;;19.60;1.00;;;;;;6276652;28;20236;-53
2022/07/15 10:02:47;;;;;;;3.87;1.70;;;19.60;1.00;;;;;;6276936;28;20379;-52
2022/07/15 10:05:54;;;;;;;3.00;1.50;;;19.70;1.00;;;;;;6290330;28;20239;-53
2022/07/15 10:08:58;;;;;;;4.17;1.90;;;19.70;1.00;;;;;;6284393;28;20755;-53
2022/07/15 10:12:18;;;;;;;2.63;2.03;;;19.60;1.00;;;;;;6285138;28;20251;-52
2022/07/15 10:15:31;;;;;;;2.00;1.80;;;19.60;1.00;;;;;;6283958;28;20452;-53
2022/07/15 10:18:49;;;;;;;1.97;1.87;;;19.40;1.00;;;;;;6282440;28;20261;-53
2022/07/15 10:22:05;;;;;;;2.13;1.60;;;19.50;1.00;;;;;;6288963;28;20237;-53
2022/07/15 10:25:24;;;;;;;2.63;1.70;;;19.70;1.00;;;;;;6286159;28;20622;-54
2022/07/15 10:28:49;;;;;;;6.33;1.83;;;19.70;1.00;;;;;;6289439;28;20253;-54
2022/07/15 10:31:58;;;;;;;3.57;2.00;;;19.80;1.00;;;;;;6283058;28;20508;-53
2022/07/15 10:35:01;;;;;;;1.90;1.63;;;19.80;1.00;;;;;;6266329;28;20305;-53
2022/07/15 10:38:24;;;;;;;2.00;1.80;;;19.90;1.00;;;;;;6284532;28;20247;-53
2022/07/15 10:41:51;;;;;;;1.57;1.57;;;19.90;1.00;;;;;;6277487;28;20768;-53
2022/07/15 10:45:08;;;;;;;3.17;1.90;;;19.80;1.00;;;;;;6277370;28;20320;-54
2022/07/15 10:48:28;;;;;;;1.70;1.60;;;20.00;1.00;;;;;;6264568;28;20237;-53
2022/07/15 10:51:46;;;;;;;1.90;1.80;;;20.30;1.00;;;;;;6273365;28;20241;-54
2022/07/15 10:55:01;;;;;;;5.53;2.03;;;20.20;1.00;;;;;;6266867;28;20695;-53
2022/07/15 10:58:04;;;;;;;3.47;1.70;;;20.00;1.00;;;;;;6284474;28;20734;-54
2022/07/15 11:01:11;;;;;;;2.67;1.90;;;20.00;1.00;;;;;;6283143;28;20320;-53
2022/07/15 11:04:17;;;;;;;1.40;1.40;;;20.20;1.00;;;;;;6284393;28;20234;-53
2022/07/15 11:07:31;;;;;;;2.63;1.80;;;20.30;1.00;;;;;;6281200;28;20337;-53
2022/07/15 11:10:36;;;;;;;3.10;1.70;;;20.20;1.00;;;;;;6279451;28;20515;-55
2022/07/15 11:13:39;;;;;;;2.10;1.70;;;20.30;1.00;;;;;;6288014;28;20244;-54
2022/07/15 11:16:43;;;;;;;1.97;1.80;;;20.60;1.00;;;;;;6297181;28;20283;-54
2022/07/15 11:19:55;;;;;;;1.97;1.70;;;20.70;1.00;;;;;;6282343;28;20233;-53
2022/07/15 11:22:59;;;;;;;1.90;1.80;;;20.80;1.00;;;;;;6279572;28;20468;-53
2022/07/15 11:26:03;;;;;;;1.93;1.83;;;20.80;1.00;;;;;;6279610;28;20240;-55
2022/07/15 11:29:07;;;;;;;3.00;1.67;;;20.70;1.00;;;;;;6291395;28;20338;-54
2022/07/15 11:32:10;;;;;;;3.67;2.07;;;21.00;1.00;;;;;;6287670;28;20237;-53
2022/07/15 11:35:13;;;;;;;3.70;2.20;;;21.10;1.00;;;;;;6277415;28;20723;-54
2022/07/15 11:38:22;;;;;;;2.10;1.80;;;21.10;1.00;;;;;;6288143;28;20324;-53
2022/07/15 11:44:51;;;;;;;6.93;2.07;;;20.90;1.00;;;;;;6284686;28;20261;-54
2022/07/15 11:47:54;;;;;;;3.03;1.90;;;20.80;1.00;;;;;;6286088;28;20777;-55
2022/07/15 11:50:58;;;;;;;3.50;1.60;;;20.50;1.00;;;;;;6290070;28;20518;-54
2022/07/15 11:54:01;;;;;;;1.53;1.50;;;20.40;1.00;;;;;;6282608;28;20598;-53
2022/07/15 11:57:07;;;;;;;1.90;1.80;;;20.30;1.00;;;;;;6289950;28;20724;-49
2022/07/15 12:00:11;;;;;;;5.13;1.60;;;20.40;1.00;;;;;;6283588;28;20331;-53
2022/07/15 12:03:14;;;;;;;1.90;1.80;;;20.60;1.00;;;;;;6275524;28;20237;-52
2022/07/15 12:06:23;;;;;;;5.03;1.80;;;20.90;1.00;;;;;;6281016;28;20237;-55
2022/07/15 12:09:26;;;;;;;2.03;1.93;;;21.00;1.00;;;;;;6290821;28;20298;-53
2022/07/15 12:12:31;;;;;;;1.70;1.70;;;21.00;1.00;;;;;;6286794;28;20592;-54
2022/07/15 12:15:34;;;;;;;1.63;1.53;;;21.00;1.00;;;;;;6292167;28;20398;-52
2022/07/15 12:18:38;;;;;;;4.63;1.73;;;21.20;1.00;;;;;;6291961;28;20325;-52
2022/07/15 12:21:42;;;;;;;3.00;2.00;;;21.40;1.00;;;;;;6287412;28;20976;-53
2022/07/15 12:24:50;;;;;;;3.10;1.73;;;21.50;1.00;;;;;;6282629;28;20314;-53
2022/07/15 12:27:54;;;;;;;2.33;2.00;;;21.60;1.00;;;;;;6296313;28;20237;-53
2022/07/15 12:30:57;;;;;;;3.50;1.70;;;21.70;1.00;;;;;;6285337;28;20233;-54
2022/07/15 12:34:00;;;;;;;2.03;1.90;;;21.80;1.00;;;;;;6284779;28;20275;-58
2022/07/15 12:37:03;;;;;;;4.27;2.23;;;21.80;1.00;;;;;;6293893;28;20381;-53
2022/07/15 12:40:10;;;;;;;2.33;1.67;;;21.90;1.00;;;;;;6281642;28;20236;-54
2022/07/15 12:43:14;;;;;;;1.50;1.40;;;21.80;1.00;;;;;;6293911;28;20271;-54
2022/07/15 12:46:19;;;;;;;1.40;1.40;;;21.40;1.00;;;;;;6284906;28;20256;-58
2022/07/15 12:49:46;;;;;;;2.20;1.53;;;21.10;1.00;;;;;;6277054;28;20249;-54
2022/07/15 12:52:49;;;;;;;2.03;1.53;;;20.90;1.00;;;;;;6282610;28;20256;-53
2022/07/15 12:55:56;;;;;;;4.70;1.60;;;20.60;1.00;;;;;;6292355;28;20229;-53
2022/07/15 12:59:01;;;;;;;2.63;1.73;;;20.60;1.00;;;;;;6288321;28;20453;-53
2022/07/15 13:02:04;;;;;;;3.73;1.50;;;20.80;1.00;;;;;;6289380;28;20242;-53
2022/07/15 13:05:08;;;;;;;1.90;1.60;;;21.00;1.00;;;;;;6292450;28;20239;-52
2022/07/15 13:08:14;;;;;;;2.33;1.57;;;21.20;1.00;;;;;;6281689;28;20876;-53
2022/07/15 13:11:18;;;;;;;3.50;1.70;;;21.60;1.00;;;;;;6284398;28;20320;-52
2022/07/15 13:14:22;;;;;;;1.50;1.40;;;21.70;1.00;;;;;;6284446;28;20662;-53
2022/07/15 13:17:25;;;;;;;4.20;1.60;;;21.80;1.00;;;;;;6285761;28;20777;-53
2022/07/15 13:20:29;;;;;;;2.40;1.50;;;21.70;1.00;;;;;;6288198;28;20242;-53
2022/07/15 13:23:32;;;;;;;3.33;1.53;;;21.70;1.00;;;;;;6281942;28;20230;-54
2022/07/15 13:26:38;;;;;;;2.77;1.80;;;21.70;1.00;;;;;;6288183;28;20330;-52
2022/07/15 13:29:42;;;;;;;2.93;1.57;;;21.50;1.00;;;;;;6279474;28;20547;-51
2022/07/15 13:32:49;;;;;;;1.43;1.43;;;21.20;1.00;;;;;;6288212;28;20238;-54
2022/07/15 13:35:53;;;;;;;1.73;1.40;;;21.40;1.00;;;;;;6279294;28;20245;-54
2022/07/15 13:38:56;;;;;;;5.27;1.83;;;21.40;1.00;;;;;;6283438;28;20234;-54
2022/07/15 13:42:01;;;;;;;2.47;1.60;;;21.40;1.00;;;;;;6296676;28;20887;-52
2022/07/15 13:45:12;;;;;;;3.00;1.60;;;21.40;1.00;;;;;;6299188;28;20495;-54
2022/07/15 13:48:15;;;;;;;6.27;1.70;;;21.40;1.00;;;;;;6279866;28;20799;-52
2022/07/15 13:51:24;;;;;;;2.20;1.50;;;21.60;1.00;;;;;;6274513;28;20271;-53
2022/07/15 13:54:27;;;;;;;2.13;2.00;;;21.60;1.00;;;;;;6266354;28;20303;-53
2022/07/15 13:57:31;;;;;;;4.17;1.80;;;21.70;1.00;;;;;;6282496;28;20255;-53
2022/07/15 14:00:44;;;;;;;3.53;1.67;;;21.60;1.00;;;;;;6280129;28;20283;-52
2022/07/15 14:03:47;;;;;;;2.83;1.63;;;21.40;1.00;;;;;;6290632;28;20233;-53
2022/07/15 14:06:50;;;;;;;3.17;1.80;;;21.30;1.00;;;;;;6278533;28;20237;-53
2022/07/15 14:09:53;;;;;;;3.83;1.97;;;21.00;1.00;;;;;;6276213;28;20410;-53
2022/07/15 14:12:56;;;;;;;1.77;1.77;;;21.10;1.00;;;;;;6282213;28;20316;-53
2022/07/15 14:16:06;;;;;;;4.60;1.90;;;21.10;1.00;;;;;;6281699;28;20237;-53
2022/07/15 14:19:08;;;;;;;3.53;1.87;;;21.30;1.00;;;;;;6294669;28;20248;-52
2022/07/15 14:22:11;;;;;;;1.63;1.50;;;21.40;1.00;;;;;;6275887;28;20233;-54
2022/07/15 14:25:14;;;;;;;3.20;2.03;;;21.50;1.00;;;;;;6279872;28;20390;-53
2022/07/15 14:28:17;;;;;;;3.37;1.60;;;21.60;1.00;;;;;;6262375;28;20433;-50
2022/07/15 14:31:25;;;;;;;2.40;1.93;;;21.50;1.00;;;;;;6283527;28;20329;-53
2022/07/15 14:34:28;;;;;;;1.70;1.60;;;21.50;1.00;;;;;;6287532;28;20271;-52
2022/07/15 14:37:31;;;;;;;6.60;1.90;;;21.60;1.00;;;;;;6280581;28;20485;-52
2022/07/15 14:40:37;;;;;;;2.13;1.77;;;21.50;1.00;;;;;;6282906;28;20383;-53
2022/07/15 14:43:40;;;;;;;3.60;1.80;;;21.60;1.00;;;;;;6285827;28;20518;-53
2022/07/15 14:46:44;;;;;;;2.93;1.87;;;21.90;1.00;;;;;;6285591;28;20328;-52
2022/07/15 14:49:47;;;;;;;1.97;1.60;;;22.10;1.00;;;;;;6283857;28;20312;-55
2022/07/15 14:52:53;;;;;;;2.50;1.80;;;22.10;1.00;;;;;;6281382;28;20255;-54
2022/07/15 14:55:56;;;;;;;2.50;2.30;;;21.90;1.00;;;;;;6282544;28;20320;-53
2022/07/15 14:58:59;;;;;;;3.73;1.90;;;21.80;1.00;;;;;;6275877;28;20272;-54
2022/07/15 15:02:03;;;;;;;1.97;1.87;;;21.90;1.00;;;;;;6273680;28;21209;-53
2022/07/15 15:05:08;;;;;;;2.00;1.90;;;21.90;1.00;;;;;;6283990;28;20248;-54
2022/07/15 15:08:10;;;;;;;5.30;2.00;;;22.10;1.00;;;;;;6280191;28;20245;-53
2022/07/15 15:11:13;;;;;;;4.83;2.03;;;21.90;1.00;;;;;;6284110;28;20844;-53
2022/07/15 15:14:16;;;;;;;2.93;1.90;;;21.80;1.00;;;;;;6297050;28;20875;-55
2022/07/15 15:17:22;;;;;;;2.67;1.97;;;21.60;1.00;;;;;;6293359;28;20391;-54
2022/07/15 15:20:25;;;;;;;3.90;2.60;;;21.50;1.00;;;;;;6289250;28;20244;-52
2022/07/15 15:23:28;;;;;;;3.10;1.93;;;21.40;1.00;;;;;;6282274;28;20241;-55
2022/07/15 15:26:35;;;;;;;2.00;1.90;;;21.20;1.00;;;;;;6282637;28;20296;-55
2022/07/15 15:29:40;;;;;;;4.57;2.03;;;21.10;1.00;;;;;;6281379;28;20557;-54
2022/07/15 15:32:44;;;;;;;2.70;2.50;;;21.20;1.00;;;;;;6289550;28;20240;-54
2022/07/15 15:35:47;;;;;;;2.00;1.80;;;21.20;1.00;;;;;;6273431;28;20233;-54
2022/07/15 15:38:50;;;;;;;2.03;1.73;;;21.30;1.00;;;;;;6280193;28;20262;-53
2022/07/15 15:41:55;;;;;;;2.47;2.20;;;21.10;1.00;;;;;;6280664;28;20323;-54
2022/07/15 15:44:57;;;;;;;1.97;1.87;;;21.00;1.00;;;;;;6281768;28;20620;-54
2022/07/15 15:48:02;;;;;;;2.63;2.03;;;20.90;1.00;;;;;;6276309;28;20232;-55
2022/07/15 15:51:05;;;;;;;2.97;2.10;;;20.70;1.00;;;;;;6282179;28;20750;-55
2022/07/15 15:54:08;;;;;;;1.80;1.70;;;20.60;1.00;;;;;;6278659;28;20233;-55
2022/07/15 15:57:11;;;;;;;3.27;2.20;;;20.60;1.00;;;;;;6291610;28;20257;-54
2022/07/15 16:00:14;;;;;;;2.93;2.07;;;20.90;1.00;;;;;;6282428;28;20237;-54
2022/07/15 16:03:18;;;;;;;2.63;2.00;;;21.10;1.00;;;;;;6282900;28;20358;-53
2022/07/15 16:06:22;;;;;;;2.10;2.00;;;21.10;1.00;;;;;;6287921;28;20590;-53
2022/07/15 16:09:26;;;;;;;1.97;1.87;;;21.30;1.00;;;;;;6276871;28;20324;-54
2022/07/15 16:12:29;;;;;;;2.00;1.90;;;21.50;1.00;;;;;;6284540;28;20658;-53
2022/07/15 16:15:32;;;;;;;2.27;2.00;;;21.70;1.00;;;;;;6282500;28;20605;-52
2022/07/15 16:18:36;;;;;;;2.30;2.00;;;21.70;1.00;;;;;;6288322;28;20286;-54
2022/07/15 16:25:02;;;;;;;1.90;1.80;;;21.70;1.00;;;;;;6285393;28;20237;-54
2022/07/15 16:28:11;;;;;;;3.77;2.03;;;21.70;1.00;;;;;;6278417;28;20251;-53
2022/07/15 16:31:18;;;;;;;1.77;1.67;;;21.30;1.00;;;;;;6290871;28;20244;-53
2022/07/15 16:34:26;;;;;;;2.60;1.70;;;21.20;1.00;;;;;;6280390;28;20320;-53